createdAt,value
2019-05-12T00:01:09.706Z,10.70
2019-05-12T00:06:15.053Z,10.72
2019-05-12T00:11:20.403Z,9.68
2019-05-12T00:16:28.188Z,9.30
2019-05-12T00:21:32.974Z,7.72
2019-05-12T00:26:38.398Z,8.28
2019-05-12T00:31:43.782Z,8.00
2019-05-12T00:36:49.176Z,6.75
2019-05-12T00:41:54.862Z,6.78
2019-05-12T00:47:00.167Z,4.80
2019-05-12T00:52:05.507Z,4.47
2019-05-12T00:57:10.807Z,4.25
2019-05-12T01:02:20.239Z,4.08
2019-05-12T01:07:27.726Z,5.07
2019-05-12T01:12:32.507Z,4.67
2019-05-12T01:17:40.076Z,4.03
2019-05-12T01:22:45.662Z,3.80
2019-05-12T01:27:50.939Z,3.60
2019-05-12T01:32:58.090Z,3.77
2019-05-12T01:38:04.080Z,3.70
2019-05-12T01:43:09.819Z,3.40
2019-05-12T01:48:15.469Z,3.47
2019-05-12T01:53:20.808Z,3.42
2019-05-12T01:58:27.785Z,3.17
2019-05-12T02:03:33.344Z,3.37
2019-05-12T02:08:44.903Z,3.42
2019-05-12T02:13:50.153Z,3.25
2019-05-12T02:18:55.397Z,3.30
2019-05-12T02:24:00.653Z,3.30
2019-05-12T02:29:07.866Z,3.37
2019-05-12T02:34:15.703Z,3.70
2019-05-12T02:39:20.159Z,3.67
2019-05-12T02:44:34.676Z,3.60
2019-05-12T02:49:50.588Z,4.03
2019-05-12T02:55:05.937Z,4.12
2019-05-12T03:00:24.246Z,4.40
2019-05-12T03:05:36.120Z,4.00
2019-05-12T03:10:46.154Z,4.40
2019-05-12T03:15:54.886Z,4.00
2019-05-12T03:21:00.149Z,4.28
2019-05-12T03:26:06.919Z,4.22
2019-05-12T03:31:22.205Z,4.20
2019-05-12T03:36:21.306Z,3.90
2019-05-12T03:41:27.390Z,3.60
2019-05-12T03:46:35.564Z,4.10
2019-05-12T03:51:45.371Z,5.12
2019-05-12T03:56:55.498Z,4.37
2019-05-12T04:02:00.116Z,4.25
2019-05-12T04:07:06.446Z,4.40
2019-05-12T04:12:14.791Z,4.20
2019-05-12T04:17:24.332Z,3.80
2019-05-12T04:22:30.529Z,4.10
2019-05-12T04:27:36.991Z,3.80
2019-05-12T04:32:45.551Z,4.10
2019-05-12T04:37:55.064Z,3.98
2019-05-12T04:43:05.853Z,3.52
2019-05-12T04:48:10.970Z,5.43
2019-05-12T04:53:25.345Z,3.98
2019-05-12T04:58:34.844Z,4.07
2019-05-12T05:03:39.112Z,3.83
2019-05-12T05:08:45.006Z,4.22
2019-05-12T05:13:51.410Z,3.90
2019-05-12T05:18:58.717Z,3.90
2019-05-12T05:24:05.131Z,3.98
2019-05-12T05:29:13.526Z,3.70
2019-05-12T05:34:23.585Z,3.60
2019-05-12T05:39:35.427Z,3.20
2019-05-12T05:44:43.477Z,3.40
2019-05-12T05:49:49.941Z,3.50
2019-05-12T05:54:56.772Z,3.20
2019-05-12T06:00:07.330Z,3.40
2019-05-12T06:05:11.399Z,2.80
2019-05-12T06:10:19.460Z,2.92
2019-05-12T06:15:29.759Z,3.10
2019-05-12T06:20:37.660Z,2.50
2019-05-12T06:25:49.279Z,2.37
2019-05-12T06:30:54.620Z,2.90
2019-05-12T06:36:03.754Z,2.73
2019-05-12T06:41:12.612Z,2.57
2019-05-12T06:46:21.042Z,2.47
2019-05-12T06:51:26.015Z,2.50
2019-05-12T06:56:34.365Z,2.50
2019-05-12T07:01:39.945Z,2.30
2019-05-12T07:06:49.772Z,2.55
2019-05-12T07:12:02.706Z,2.43
2019-05-12T07:17:07.305Z,2.80
2019-05-12T07:22:21.867Z,2.42
2019-05-12T07:27:35.284Z,2.60
2019-05-12T07:32:31.095Z,2.50
2019-05-12T07:37:38.166Z,2.47
2019-05-12T07:42:43.934Z,2.52
2019-05-12T07:47:49.189Z,2.50
2019-05-12T07:52:54.471Z,2.27
2019-05-12T07:58:10.303Z,2.13
2019-05-12T08:03:15.954Z,2.27
2019-05-12T08:08:14.538Z,2.17
2019-05-12T08:13:20.072Z,2.40
2019-05-12T08:18:25.330Z,2.35
2019-05-12T08:23:33.846Z,2.12
2019-05-12T08:28:40.379Z,2.40
2019-05-12T08:33:45.947Z,2.08
2019-05-12T08:38:53.602Z,2.10
2019-05-12T08:43:58.692Z,2.00
2019-05-12T08:49:05.594Z,1.90
2019-05-12T08:54:10.837Z,2.30
2019-05-12T08:59:18.493Z,2.20
2019-05-12T09:04:24.705Z,2.37
2019-05-12T09:09:30.096Z,1.80
2019-05-12T09:14:41.055Z,1.95
2019-05-12T09:19:43.604Z,2.00
2019-05-12T09:24:49.263Z,1.90
2019-05-12T09:29:59.217Z,2.00
2019-05-12T09:35:04.034Z,1.57
2019-05-12T09:40:09.169Z,1.90
2019-05-12T09:45:15.546Z,1.75
2019-05-12T09:50:20.769Z,1.80
2019-05-12T09:55:26.266Z,1.93
2019-05-12T10:00:36.038Z,1.85
2019-05-12T10:05:41.204Z,1.65
2019-05-12T10:10:47.191Z,1.77
2019-05-12T10:15:53.591Z,1.70
2019-05-12T10:20:59.273Z,1.60
2019-05-12T10:26:10.047Z,1.27
2019-05-12T10:31:13.835Z,1.43
2019-05-12T10:36:18.861Z,1.67
2019-05-12T10:41:24.128Z,1.60
2019-05-12T10:46:29.421Z,1.42
2019-05-12T10:51:35.067Z,1.60
2019-05-12T10:56:40.441Z,1.52
2019-05-12T11:01:49.026Z,1.50
2019-05-12T11:06:53.776Z,1.60
2019-05-12T11:11:59.073Z,1.30
2019-05-12T11:17:09.140Z,1.37
2019-05-12T11:22:14.920Z,1.30
2019-05-12T11:27:20.221Z,1.43
2019-05-12T11:32:28.931Z,1.20
2019-05-12T11:37:33.840Z,1.20
2019-05-12T11:42:39.111Z,1.30
2019-05-12T11:47:44.757Z,1.17
2019-05-12T11:52:51.087Z,1.30
2019-05-12T11:58:00.230Z,1.20
2019-05-12T12:03:18.172Z,1.10
2019-05-12T12:08:18.264Z,1.20
2019-05-12T12:13:29.755Z,1.40
2019-05-12T12:18:33.755Z,1.10
2019-05-12T12:23:50.190Z,1.10
2019-05-12T12:28:56.852Z,1.10
2019-05-12T12:34:02.650Z,1.07
2019-05-12T12:39:07.959Z,1.02
2019-05-12T12:44:13.619Z,1.20
2019-05-12T12:49:18.899Z,1.30
2019-05-12T12:54:24.655Z,1.22
2019-05-12T12:59:29.883Z,1.30
2019-05-12T13:04:39.709Z,1.32
2019-05-12T13:09:44.230Z,1.12
2019-05-12T13:14:49.794Z,1.13
2019-05-12T13:19:58.638Z,1.10
2019-05-12T13:25:04.480Z,1.15
2019-05-12T13:30:16.292Z,1.00
2019-05-12T13:35:20.004Z,1.30
2019-05-12T13:40:23.883Z,1.20
2019-05-12T13:45:29.687Z,1.07
2019-05-12T13:50:43.400Z,1.27
2019-05-12T13:55:50.081Z,1.10
2019-05-12T14:06:04.106Z,1.20
2019-05-12T14:11:12.599Z,1.20
2019-05-12T14:16:20.827Z,1.40
2019-05-12T14:21:35.282Z,1.20
2019-05-12T14:26:39.282Z,1.20
2019-05-12T14:31:50.979Z,1.30
2019-05-12T14:37:10.429Z,1.15
2019-05-12T14:42:14.160Z,1.10
2019-05-12T14:47:25.690Z,1.10
2019-05-12T14:52:33.274Z,1.40
2019-05-12T14:57:39.451Z,1.40
2019-05-12T15:02:44.785Z,1.10
2019-05-12T15:07:51.528Z,3.52
2019-05-12T15:13:03.509Z,1.25
2019-05-12T15:18:12.864Z,1.20
2019-05-12T15:23:16.537Z,1.20
2019-05-12T15:28:23.681Z,1.12
2019-05-12T15:33:29.054Z,1.20
2019-05-12T15:38:34.422Z,1.20
2019-05-12T15:43:44.407Z,2.27
2019-05-12T15:48:47.714Z,4.22
2019-05-12T15:53:57.275Z,3.15
2019-05-12T15:59:00.986Z,1.30
2019-05-12T16:04:06.992Z,2.52
2019-05-12T16:09:13.259Z,1.20
2019-05-12T16:14:19.215Z,1.20
2019-05-12T16:19:26.538Z,1.20
2019-05-12T16:24:33.926Z,1.20
2019-05-12T16:29:38.842Z,1.17
2019-05-12T16:34:48.773Z,1.20
2019-05-12T16:39:54.069Z,1.10
2019-05-12T16:45:05.941Z,1.32
2019-05-12T16:50:15.182Z,1.17
2019-05-12T16:55:14.042Z,1.30
2019-05-12T17:00:20.560Z,1.20
2019-05-12T17:05:25.886Z,1.20
2019-05-12T17:10:31.182Z,1.15
2019-05-12T17:15:36.816Z,1.22
2019-05-12T17:20:47.026Z,1.05
2019-05-12T17:25:49.984Z,1.00
2019-05-12T17:30:55.203Z,1.00
2019-05-12T17:36:03.111Z,1.20
2019-05-12T17:41:08.547Z,1.40
2019-05-12T17:46:18.099Z,1.20
2019-05-12T17:51:26.789Z,1.30
2019-05-12T17:56:36.674Z,1.10
2019-05-12T18:01:38.716Z,1.10
2019-05-12T18:06:44.237Z,1.30
2019-05-12T18:11:54.288Z,1.17
2019-05-12T18:17:02.508Z,1.20
2019-05-12T18:22:09.104Z,1.20
2019-05-12T18:27:10.752Z,1.02
2019-05-12T18:32:16.415Z,1.20
2019-05-12T18:37:23.933Z,3.20
2019-05-12T18:42:28.639Z,8.90
2019-05-12T18:47:36.505Z,11.57
2019-05-12T18:52:43.661Z,12.40
2019-05-12T18:57:50.073Z,2.40
2019-05-12T19:02:59.814Z,1.30
2019-05-12T19:08:03.853Z,1.20
2019-05-12T19:13:09.494Z,1.20
2019-05-12T19:18:18.341Z,1.20
2019-05-12T19:23:26.949Z,1.30
2019-05-12T19:28:31.404Z,1.30
2019-05-12T19:33:43.855Z,1.27
2019-05-12T19:38:44.603Z,1.20
2019-05-12T19:43:53.298Z,1.50
2019-05-12T19:48:58.281Z,1.12
2019-05-12T19:54:04.835Z,1.50
2019-05-12T19:59:10.757Z,1.45
2019-05-12T20:04:29.649Z,1.50
2019-05-12T20:09:24.354Z,1.42
2019-05-12T20:14:30.471Z,1.42
2019-05-12T20:19:36.351Z,1.60
2019-05-12T20:24:44.308Z,1.50
2019-05-12T20:29:49.732Z,3.62
2019-05-12T20:34:55.470Z,3.98
2019-05-12T20:40:05.273Z,2.47
2019-05-12T20:45:13.597Z,3.08
2019-05-12T20:50:24.277Z,1.77
2019-05-12T20:55:30.068Z,1.70
2019-05-12T21:00:33.771Z,17.43
2019-05-12T21:05:39.589Z,13.63
2019-05-12T21:10:45.990Z,5.03
2019-05-12T21:15:53.759Z,4.37
2019-05-12T21:20:58.496Z,5.57
2019-05-12T21:26:04.507Z,4.47
2019-05-12T21:31:10.256Z,3.50
2019-05-12T21:36:23.857Z,2.43
2019-05-12T21:41:24.593Z,2.98
2019-05-12T21:46:31.776Z,4.87
2019-05-12T21:51:38.080Z,3.70
2019-05-12T21:56:48.010Z,3.83
2019-05-12T22:01:53.388Z,3.30
2019-05-12T22:06:59.057Z,4.60
2019-05-12T22:12:04.909Z,5.97
2019-05-12T22:17:10.407Z,3.85
2019-05-12T22:22:19.537Z,2.70
2019-05-12T22:27:27.074Z,3.10
2019-05-12T22:32:29.949Z,2.40
2019-05-12T22:37:36.527Z,3.67
2019-05-12T22:42:44.363Z,3.47
2019-05-12T22:47:54.056Z,2.98
2019-05-12T22:52:56.070Z,2.52
2019-05-12T22:58:01.717Z,2.90
2019-05-12T23:03:11.651Z,3.10
2019-05-12T23:08:14.357Z,4.50
2019-05-12T23:13:19.913Z,3.20
2019-05-12T23:18:30.542Z,3.20
2019-05-12T23:23:34.441Z,2.77
2019-05-12T23:28:40.421Z,2.92
2019-05-12T23:33:46.706Z,3.00
2019-05-12T23:39:00.153Z,3.20
2019-05-12T23:43:58.988Z,2.53
2019-05-12T23:49:04.379Z,2.75
2019-05-12T23:54:09.688Z,2.70
2019-05-12T23:59:15.041Z,2.45
